sensor_id;sensor_type;location;lat;lon;timestamp;P1;durP1;ratioP1;P2;durP2;ratioP2
31638;SDS011;18248;51.522;7.020;2022-09-06T00:02:19;11.90;;;4.15;;
31638;SDS011;18248;51.522;7.020;2022-09-06T00:05:18;9.07;;;4.53;;
31638;SDS011;18248;51.522;7.020;2022-09-06T00:08:17;10.15;;;4.30;;
31638;SDS011;18248;51.522;7.020;2022-09-06T00:11:16;10.35;;;3.85;;
31638;SDS011;18248;51.522;7.020;2022-09-06T00:14:15;6.95;;;3.88;;
31638;SDS011;18248;51.522;7.020;2022-09-06T00:17:16;13.93;;;4.85;;
31638;SDS011;18248;51.522;7.020;2022-09-06T00:20:16;16.92;;;5.25;;
31638;SDS011;18248;51.522;7.020;2022-09-06T00:23:14;10.40;;;4.20;;
31638;SDS011;18248;51.522;7.020;2022-09-06T00:26:13;14.30;;;4.65;;
31638;SDS011;18248;51.522;7.020;2022-09-06T00:29:12;12.50;;;4.43;;
31638;SDS011;18248;51.522;7.020;2022-09-06T00:32:12;10.82;;;4.22;;
31638;SDS011;18248;51.522;7.020;2022-09-06T00:35:11;11.75;;;4.90;;
31638;SDS011;18248;51.522;7.020;2022-09-06T00:38:10;9.80;;;4.72;;
31638;SDS011;18248;51.522;7.020;2022-09-06T00:41:11;11.90;;;4.65;;
31638;SDS011;18248;51.522;7.020;2022-09-06T00:44:11;10.68;;;4.03;;
31638;SDS011;18248;51.522;7.020;2022-09-06T00:47:09;13.68;;;4.57;;
31638;SDS011;18248;51.522;7.020;2022-09-06T00:50:08;11.45;;;4.60;;
31638;SDS011;18248;51.522;7.020;2022-09-06T00:53:08;16.23;;;4.30;;
31638;SDS011;18248;51.522;7.020;2022-09-06T00:56:07;9.55;;;4.07;;
31638;SDS011;18248;51.522;7.020;2022-09-06T00:59:07;8.45;;;3.33;;
31638;SDS011;18248;51.522;7.020;2022-09-06T01:06:17;10.13;;;4.45;;
31638;SDS011;18248;51.522;7.020;2022-09-06T01:16:10;11.95;;;4.82;;
31638;SDS011;18248;51.522;7.020;2022-09-06T01:29:47;8.05;;;4.53;;
31638;SDS011;18248;51.522;7.020;2022-09-06T01:32:57;10.77;;;4.35;;
31638;SDS011;18248;51.522;7.020;2022-09-06T01:36:04;14.98;;;4.20;;
31638;SDS011;18248;51.522;7.020;2022-09-06T01:39:10;11.43;;;3.60;;
31638;SDS011;18248;51.522;7.020;2022-09-06T01:42:24;8.73;;;3.33;;
31638;SDS011;18248;51.522;7.020;2022-09-06T01:45:31;11.13;;;3.38;;
31638;SDS011;18248;51.522;7.020;2022-09-06T02:05:45;8.50;;;3.25;;
31638;SDS011;18248;51.522;7.020;2022-09-06T02:08:52;8.38;;;3.00;;
31638;SDS011;18248;51.522;7.020;2022-09-06T02:11:58;9.52;;;3.30;;
31638;SDS011;18248;51.522;7.020;2022-09-06T02:15:05;6.80;;;3.10;;
31638;SDS011;18248;51.522;7.020;2022-09-06T02:18:23;14.02;;;3.63;;
31638;SDS011;18248;51.522;7.020;2022-09-06T02:21:31;8.85;;;3.45;;
31638;SDS011;18248;51.522;7.020;2022-09-06T02:24:36;9.32;;;3.42;;
31638;SDS011;18248;51.522;7.020;2022-09-06T02:27:38;10.23;;;3.25;;
31638;SDS011;18248;51.522;7.020;2022-09-06T02:30:38;6.40;;;2.88;;
31638;SDS011;18248;51.522;7.020;2022-09-06T02:33:42;7.55;;;2.83;;
31638;SDS011;18248;51.522;7.020;2022-09-06T02:36:43;8.50;;;2.88;;
31638;SDS011;18248;51.522;7.020;2022-09-06T02:39:42;10.52;;;3.05;;
31638;SDS011;18248;51.522;7.020;2022-09-06T02:42:41;5.53;;;2.90;;
31638;SDS011;18248;51.522;7.020;2022-09-06T02:45:39;6.28;;;3.03;;
31638;SDS011;18248;51.522;7.020;2022-09-06T02:48:39;5.65;;;2.60;;
31638;SDS011;18248;51.522;7.020;2022-09-06T02:51:38;6.25;;;2.38;;
31638;SDS011;18248;51.522;7.020;2022-09-06T02:54:37;8.60;;;2.67;;
31638;SDS011;18248;51.522;7.020;2022-09-06T02:57:35;6.75;;;2.85;;
31638;SDS011;18248;51.522;7.020;2022-09-06T03:00:34;9.88;;;2.85;;
31638;SDS011;18248;51.522;7.020;2022-09-06T03:03:33;9.25;;;3.05;;
31638;SDS011;18248;51.522;7.020;2022-09-06T03:06:31;8.00;;;3.30;;
31638;SDS011;18248;51.522;7.020;2022-09-06T03:09:31;6.82;;;3.40;;
31638;SDS011;18248;51.522;7.020;2022-09-06T03:16:24;8.77;;;3.45;;
31638;SDS011;18248;51.522;7.020;2022-09-06T03:19:23;8.50;;;3.42;;
31638;SDS011;18248;51.522;7.020;2022-09-06T03:22:21;6.13;;;3.33;;
31638;SDS011;18248;51.522;7.020;2022-09-06T03:25:20;13.55;;;3.97;;
31638;SDS011;18248;51.522;7.020;2022-09-06T03:28:19;6.90;;;3.45;;
31638;SDS011;18248;51.522;7.020;2022-09-06T03:31:18;13.68;;;3.90;;
31638;SDS011;18248;51.522;7.020;2022-09-06T03:34:18;6.28;;;3.17;;
31638;SDS011;18248;51.522;7.020;2022-09-06T03:37:17;12.52;;;4.65;;
31638;SDS011;18248;51.522;7.020;2022-09-06T03:40:16;12.40;;;3.60;;
31638;SDS011;18248;51.522;7.020;2022-09-06T03:43:15;8.15;;;2.97;;
31638;SDS011;18248;51.522;7.020;2022-09-06T03:46:14;12.23;;;3.88;;
31638;SDS011;18248;51.522;7.020;2022-09-06T03:49:13;6.63;;;3.55;;
31638;SDS011;18248;51.522;7.020;2022-09-06T03:52:11;8.45;;;3.58;;
31638;SDS011;18248;51.522;7.020;2022-09-06T03:55:10;7.90;;;3.58;;
31638;SDS011;18248;51.522;7.020;2022-09-06T03:58:08;10.20;;;3.85;;
31638;SDS011;18248;51.522;7.020;2022-09-06T04:01:08;9.77;;;3.75;;
31638;SDS011;18248;51.522;7.020;2022-09-06T04:04:08;9.27;;;3.63;;
31638;SDS011;18248;51.522;7.020;2022-09-06T04:07:07;6.03;;;3.40;;
31638;SDS011;18248;51.522;7.020;2022-09-06T04:10:05;10.98;;;4.40;;
31638;SDS011;18248;51.522;7.020;2022-09-06T04:13:04;10.60;;;3.83;;
31638;SDS011;18248;51.522;7.020;2022-09-06T04:16:03;7.80;;;3.67;;
31638;SDS011;18248;51.522;7.020;2022-09-06T04:19:03;5.82;;;3.53;;
31638;SDS011;18248;51.522;7.020;2022-09-06T04:22:02;4.90;;;3.13;;
31638;SDS011;18248;51.522;7.020;2022-09-06T04:25:02;11.85;;;4.30;;
31638;SDS011;18248;51.522;7.020;2022-09-06T04:28:01;7.07;;;3.67;;
31638;SDS011;18248;51.522;7.020;2022-09-06T04:31:01;13.68;;;4.25;;
31638;SDS011;18248;51.522;7.020;2022-09-06T04:34:00;13.35;;;4.00;;
31638;SDS011;18248;51.522;7.020;2022-09-06T04:36:59;6.25;;;3.53;;
31638;SDS011;18248;51.522;7.020;2022-09-06T04:39:57;6.28;;;3.45;;
31638;SDS011;18248;51.522;7.020;2022-09-06T04:42:57;7.47;;;3.75;;
31638;SDS011;18248;51.522;7.020;2022-09-06T04:46:01;11.07;;;4.30;;
31638;SDS011;18248;51.522;7.020;2022-09-06T04:49:10;8.30;;;3.35;;
31638;SDS011;18248;51.522;7.020;2022-09-06T04:52:09;7.57;;;3.75;;
31638;SDS011;18248;51.522;7.020;2022-09-06T04:55:08;9.27;;;4.05;;
31638;SDS011;18248;51.522;7.020;2022-09-06T04:58:06;7.90;;;4.10;;
31638;SDS011;18248;51.522;7.020;2022-09-06T05:01:05;7.68;;;5.13;;
31638;SDS011;18248;51.522;7.020;2022-09-06T05:04:03;9.90;;;4.55;;
31638;SDS011;18248;51.522;7.020;2022-09-06T05:07:03;8.02;;;4.72;;
31638;SDS011;18248;51.522;7.020;2022-09-06T05:10:03;8.07;;;4.32;;
31638;SDS011;18248;51.522;7.020;2022-09-06T05:13:02;12.93;;;4.55;;
31638;SDS011;18248;51.522;7.020;2022-09-06T05:16:02;12.20;;;4.07;;
31638;SDS011;18248;51.522;7.020;2022-09-06T05:19:02;9.77;;;4.63;;
31638;SDS011;18248;51.522;7.020;2022-09-06T05:22:01;11.32;;;5.20;;
31638;SDS011;18248;51.522;7.020;2022-09-06T05:24:59;9.05;;;4.13;;
31638;SDS011;18248;51.522;7.020;2022-09-06T05:27:58;9.98;;;4.40;;
31638;SDS011;18248;51.522;7.020;2022-09-06T05:31:06;11.00;;;4.80;;
31638;SDS011;18248;51.522;7.020;2022-09-06T05:34:09;8.32;;;4.13;;
31638;SDS011;18248;51.522;7.020;2022-09-06T05:37:10;11.55;;;5.03;;
31638;SDS011;18248;51.522;7.020;2022-09-06T05:40:08;14.20;;;4.68;;
31638;SDS011;18248;51.522;7.020;2022-09-06T05:43:07;5.40;;;3.90;;
31638;SDS011;18248;51.522;7.020;2022-09-06T05:46:05;9.65;;;4.40;;
31638;SDS011;18248;51.522;7.020;2022-09-06T05:49:05;6.32;;;4.10;;
31638;SDS011;18248;51.522;7.020;2022-09-06T05:52:04;9.27;;;4.10;;
31638;SDS011;18248;51.522;7.020;2022-09-06T05:55:05;9.52;;;3.63;;
31638;SDS011;18248;51.522;7.020;2022-09-06T05:58:04;10.27;;;3.83;;
31638;SDS011;18248;51.522;7.020;2022-09-06T06:01:18;10.07;;;3.90;;
31638;SDS011;18248;51.522;7.020;2022-09-06T06:04:19;7.70;;;3.67;;
31638;SDS011;18248;51.522;7.020;2022-09-06T06:07:19;8.32;;;4.15;;
31638;SDS011;18248;51.522;7.020;2022-09-06T06:10:17;6.38;;;3.83;;
31638;SDS011;18248;51.522;7.020;2022-09-06T06:13:16;11.20;;;4.10;;
31638;SDS011;18248;51.522;7.020;2022-09-06T06:16:15;9.98;;;4.10;;
31638;SDS011;18248;51.522;7.020;2022-09-06T06:19:14;9.85;;;4.15;;
31638;SDS011;18248;51.522;7.020;2022-09-06T06:22:14;11.32;;;4.13;;
31638;SDS011;18248;51.522;7.020;2022-09-06T06:25:14;11.07;;;4.45;;
31638;SDS011;18248;51.522;7.020;2022-09-06T06:28:13;9.55;;;4.28;;
31638;SDS011;18248;51.522;7.020;2022-09-06T06:31:13;6.35;;;3.20;;
31638;SDS011;18248;51.522;7.020;2022-09-06T06:34:12;10.13;;;4.35;;
31638;SDS011;18248;51.522;7.020;2022-09-06T06:37:11;10.98;;;3.90;;
31638;SDS011;18248;51.522;7.020;2022-09-06T06:40:10;9.30;;;3.95;;
31638;SDS011;18248;51.522;7.020;2022-09-06T06:43:08;9.07;;;3.38;;
31638;SDS011;18248;51.522;7.020;2022-09-06T06:46:09;9.30;;;3.50;;
31638;SDS011;18248;51.522;7.020;2022-09-06T06:49:09;12.88;;;3.83;;
31638;SDS011;18248;51.522;7.020;2022-09-06T06:52:08;7.28;;;3.10;;
31638;SDS011;18248;51.522;7.020;2022-09-06T06:55:06;12.73;;;4.03;;
31638;SDS011;18248;51.522;7.020;2022-09-06T06:58:05;4.47;;;2.97;;
31638;SDS011;18248;51.522;7.020;2022-09-06T07:01:04;8.48;;;3.35;;
31638;SDS011;18248;51.522;7.020;2022-09-06T07:04:03;6.90;;;3.05;;
31638;SDS011;18248;51.522;7.020;2022-09-06T07:07:02;7.72;;;4.28;;
31638;SDS011;18248;51.522;7.020;2022-09-06T07:10:02;6.80;;;3.13;;
31638;SDS011;18248;51.522;7.020;2022-09-06T07:13:02;6.45;;;2.60;;
31638;SDS011;18248;51.522;7.020;2022-09-06T07:19:18;6.95;;;2.58;;
31638;SDS011;18248;51.522;7.020;2022-09-06T07:22:17;5.53;;;2.38;;
31638;SDS011;18248;51.522;7.020;2022-09-06T07:25:15;3.85;;;1.88;;
31638;SDS011;18248;51.522;7.020;2022-09-06T07:28:14;8.40;;;2.33;;
31638;SDS011;18248;51.522;7.020;2022-09-06T07:31:13;8.95;;;2.55;;
31638;SDS011;18248;51.522;7.020;2022-09-06T07:34:11;8.45;;;2.55;;
31638;SDS011;18248;51.522;7.020;2022-09-06T07:37:11;9.75;;;2.40;;
31638;SDS011;18248;51.522;7.020;2022-09-06T07:40:10;4.80;;;2.13;;
31638;SDS011;18248;51.522;7.020;2022-09-06T07:43:08;3.75;;;2.00;;
31638;SDS011;18248;51.522;7.020;2022-09-06T07:46:08;10.68;;;3.25;;
31638;SDS011;18248;51.522;7.020;2022-09-06T07:49:11;6.68;;;3.05;;
31638;SDS011;18248;51.522;7.020;2022-09-06T07:52:10;5.93;;;2.20;;
31638;SDS011;18248;51.522;7.020;2022-09-06T07:55:08;3.80;;;1.77;;
31638;SDS011;18248;51.522;7.020;2022-09-06T07:58:07;5.75;;;1.83;;
31638;SDS011;18248;51.522;7.020;2022-09-06T08:01:18;3.00;;;1.30;;
31638;SDS011;18248;51.522;7.020;2022-09-06T08:04:27;3.40;;;1.60;;
31638;SDS011;18248;51.522;7.020;2022-09-06T08:07:25;5.40;;;2.00;;
31638;SDS011;18248;51.522;7.020;2022-09-06T08:10:24;4.47;;;1.23;;
31638;SDS011;18248;51.522;7.020;2022-09-06T08:13:24;4.95;;;1.30;;
31638;SDS011;18248;51.522;7.020;2022-09-06T08:16:23;3.30;;;1.15;;
31638;SDS011;18248;51.522;7.020;2022-09-06T08:19:23;3.10;;;1.20;;
31638;SDS011;18248;51.522;7.020;2022-09-06T08:22:21;3.75;;;1.27;;
31638;SDS011;18248;51.522;7.020;2022-09-06T08:25:20;3.30;;;1.30;;
31638;SDS011;18248;51.522;7.020;2022-09-06T08:28:19;7.10;;;1.40;;
31638;SDS011;18248;51.522;7.020;2022-09-06T08:31:18;4.82;;;1.17;;
31638;SDS011;18248;51.522;7.020;2022-09-06T08:34:17;4.85;;;1.20;;
31638;SDS011;18248;51.522;7.020;2022-09-06T08:37:15;5.63;;;1.27;;
31638;SDS011;18248;51.522;7.020;2022-09-06T08:40:15;3.72;;;1.20;;
31638;SDS011;18248;51.522;7.020;2022-09-06T08:43:18;2.20;;;0.90;;
31638;SDS011;18248;51.522;7.020;2022-09-06T08:50:13;3.58;;;0.98;;
31638;SDS011;18248;51.522;7.020;2022-09-06T08:53:15;4.55;;;1.33;;
31638;SDS011;18248;51.522;7.020;2022-09-06T08:56:17;4.57;;;1.15;;
31638;SDS011;18248;51.522;7.020;2022-09-06T08:59:21;3.05;;;0.80;;
31638;SDS011;18248;51.522;7.020;2022-09-06T09:02:20;7.97;;;1.30;;
31638;SDS011;18248;51.522;7.020;2022-09-06T09:05:21;5.95;;;1.10;;
31638;SDS011;18248;51.522;7.020;2022-09-06T09:11:56;2.00;;;1.30;;
31638;SDS011;18248;51.522;7.020;2022-09-06T09:14:59;5.10;;;1.00;;
31638;SDS011;18248;51.522;7.020;2022-09-06T09:18:03;2.58;;;1.00;;
31638;SDS011;18248;51.522;7.020;2022-09-06T09:21:02;3.28;;;1.13;;
31638;SDS011;18248;51.522;7.020;2022-09-06T09:24:02;1.55;;;0.90;;
31638;SDS011;18248;51.522;7.020;2022-09-06T09:27:04;2.78;;;0.88;;
31638;SDS011;18248;51.522;7.020;2022-09-06T09:30:08;3.67;;;0.82;;
31638;SDS011;18248;51.522;7.020;2022-09-06T09:33:19;1.35;;;0.98;;
31638;SDS011;18248;51.522;7.020;2022-09-06T09:36:20;3.75;;;1.02;;
31638;SDS011;18248;51.522;7.020;2022-09-06T09:39:19;1.23;;;0.60;;
31638;SDS011;18248;51.522;7.020;2022-09-06T09:42:27;1.80;;;0.73;;
31638;SDS011;18248;51.522;7.020;2022-09-06T09:45:29;4.75;;;0.82;;
31638;SDS011;18248;51.522;7.020;2022-09-06T09:48:28;2.15;;;0.70;;
31638;SDS011;18248;51.522;7.020;2022-09-06T09:51:27;4.10;;;0.95;;
31638;SDS011;18248;51.522;7.020;2022-09-06T09:54:30;6.45;;;0.80;;
31638;SDS011;18248;51.522;7.020;2022-09-06T09:57:42;4.13;;;0.70;;
31638;SDS011;18248;51.522;7.020;2022-09-06T10:00:42;2.15;;;0.82;;
31638;SDS011;18248;51.522;7.020;2022-09-06T10:03:41;4.40;;;0.88;;
31638;SDS011;18248;51.522;7.020;2022-09-06T10:13:48;4.20;;;1.38;;
31638;SDS011;18248;51.522;7.020;2022-09-06T10:16:48;7.60;;;1.10;;
31638;SDS011;18248;51.522;7.020;2022-09-06T10:19:48;3.47;;;1.30;;
31638;SDS011;18248;51.522;7.020;2022-09-06T10:26:28;6.93;;;1.80;;
31638;SDS011;18248;51.522;7.020;2022-09-06T10:29:45;4.60;;;1.02;;
31638;SDS011;18248;51.522;7.020;2022-09-06T10:32:59;2.83;;;1.05;;
31638;SDS011;18248;51.522;7.020;2022-09-06T10:36:11;7.97;;;1.30;;
31638;SDS011;18248;51.522;7.020;2022-09-06T10:45:56;5.07;;;1.05;;
31638;SDS011;18248;51.522;7.020;2022-09-06T10:48:56;3.25;;;1.45;;
31638;SDS011;18248;51.522;7.020;2022-09-06T10:51:56;9.80;;;1.90;;
31638;SDS011;18248;51.522;7.020;2022-09-06T10:54:59;4.32;;;1.23;;
31638;SDS011;18248;51.522;7.020;2022-09-06T10:58:01;6.00;;;1.23;;
31638;SDS011;18248;51.522;7.020;2022-09-06T11:01:04;4.38;;;1.52;;
31638;SDS011;18248;51.522;7.020;2022-09-06T11:04:08;3.45;;;0.80;;
31638;SDS011;18248;51.522;7.020;2022-09-06T11:07:26;7.93;;;1.08;;
31638;SDS011;18248;51.522;7.020;2022-09-06T11:10:35;4.75;;;1.00;;
31638;SDS011;18248;51.522;7.020;2022-09-06T11:13:37;2.67;;;0.90;;
31638;SDS011;18248;51.522;7.020;2022-09-06T11:16:38;3.17;;;1.15;;
31638;SDS011;18248;51.522;7.020;2022-09-06T11:19:59;2.83;;;1.00;;
31638;SDS011;18248;51.522;7.020;2022-09-06T11:29:56;5.82;;;1.50;;
31638;SDS011;18248;51.522;7.020;2022-09-06T11:33:03;3.70;;;1.02;;
31638;SDS011;18248;51.522;7.020;2022-09-06T11:36:46;4.97;;;1.00;;
31638;SDS011;18248;51.522;7.020;2022-09-06T11:39:59;3.35;;;0.93;;
31638;SDS011;18248;51.522;7.020;2022-09-06T11:46:02;3.33;;;1.35;;
31638;SDS011;18248;51.522;7.020;2022-09-06T11:49:06;8.07;;;1.10;;
31638;SDS011;18248;51.522;7.020;2022-09-06T11:58:58;6.43;;;1.30;;
31638;SDS011;18248;51.522;7.020;2022-09-06T12:02:04;5.50;;;1.40;;
31638;SDS011;18248;51.522;7.020;2022-09-06T12:14:45;4.03;;;1.10;;
31638;SDS011;18248;51.522;7.020;2022-09-06T12:17:44;7.00;;;1.00;;
31638;SDS011;18248;51.522;7.020;2022-09-06T12:23:45;6.00;;;1.10;;
31638;SDS011;18248;51.522;7.020;2022-09-06T12:26:48;3.33;;;0.90;;
31638;SDS011;18248;51.522;7.020;2022-09-06T12:29:54;25.63;;;2.42;;
31638;SDS011;18248;51.522;7.020;2022-09-06T12:32:57;8.77;;;1.52;;
31638;SDS011;18248;51.522;7.020;2022-09-06T12:36:12;4.95;;;1.30;;
31638;SDS011;18248;51.522;7.020;2022-09-06T12:39:19;2.92;;;0.98;;
31638;SDS011;18248;51.522;7.020;2022-09-06T12:42:18;1.52;;;1.00;;
31638;SDS011;18248;51.522;7.020;2022-09-06T12:45:19;4.63;;;1.23;;
31638;SDS011;18248;51.522;7.020;2022-09-06T12:48:33;2.70;;;1.08;;
31638;SDS011;18248;51.522;7.020;2022-09-06T12:51:38;5.13;;;1.02;;
31638;SDS011;18248;51.522;7.020;2022-09-06T12:54:44;4.82;;;1.05;;
31638;SDS011;18248;51.522;7.020;2022-09-06T12:57:48;4.43;;;1.00;;
31638;SDS011;18248;51.522;7.020;2022-09-06T13:00:51;2.90;;;1.10;;
31638;SDS011;18248;51.522;7.020;2022-09-06T13:06:53;3.65;;;1.27;;
31638;SDS011;18248;51.522;7.020;2022-09-06T13:09:55;7.07;;;2.22;;
31638;SDS011;18248;51.522;7.020;2022-09-06T13:12:55;3.85;;;1.80;;
31638;SDS011;18248;51.522;7.020;2022-09-06T13:15:55;3.38;;;1.70;;
31638;SDS011;18248;51.522;7.020;2022-09-06T13:18:54;5.60;;;2.10;;
31638;SDS011;18248;51.522;7.020;2022-09-06T13:22:36;8.85;;;3.47;;
31638;SDS011;18248;51.522;7.020;2022-09-06T13:25:52;4.65;;;1.90;;
31638;SDS011;18248;51.522;7.020;2022-09-06T13:28:52;4.35;;;1.30;;
31638;SDS011;18248;51.522;7.020;2022-09-06T13:31:52;5.32;;;1.50;;
31638;SDS011;18248;51.522;7.020;2022-09-06T13:34:53;5.63;;;1.40;;
31638;SDS011;18248;51.522;7.020;2022-09-06T13:44:29;5.13;;;1.45;;
31638;SDS011;18248;51.522;7.020;2022-09-06T13:47:28;8.27;;;1.95;;
31638;SDS011;18248;51.522;7.020;2022-09-06T13:50:27;4.03;;;1.55;;
31638;SDS011;18248;51.522;7.020;2022-09-06T13:53:25;6.05;;;1.58;;
31638;SDS011;18248;51.522;7.020;2022-09-06T13:56:26;9.35;;;1.30;;
31638;SDS011;18248;51.522;7.020;2022-09-06T13:59:24;3.25;;;1.25;;
31638;SDS011;18248;51.522;7.020;2022-09-06T14:02:23;6.55;;;1.42;;
31638;SDS011;18248;51.522;7.020;2022-09-06T14:05:21;5.00;;;1.65;;
31638;SDS011;18248;51.522;7.020;2022-09-06T14:08:20;4.90;;;1.30;;
31638;SDS011;18248;51.522;7.020;2022-09-06T14:11:19;3.67;;;1.27;;
31638;SDS011;18248;51.522;7.020;2022-09-06T14:14:17;5.63;;;1.30;;
31638;SDS011;18248;51.522;7.020;2022-09-06T14:17:17;3.92;;;1.20;;
31638;SDS011;18248;51.522;7.020;2022-09-06T14:20:16;7.60;;;1.42;;
31638;SDS011;18248;51.522;7.020;2022-09-06T14:23:15;5.95;;;1.25;;
31638;SDS011;18248;51.522;7.020;2022-09-06T14:26:13;9.57;;;1.52;;
31638;SDS011;18248;51.522;7.020;2022-09-06T14:29:12;4.93;;;1.40;;
31638;SDS011;18248;51.522;7.020;2022-09-06T14:32:10;7.50;;;1.50;;
31638;SDS011;18248;51.522;7.020;2022-09-06T14:35:09;5.10;;;1.20;;
31638;SDS011;18248;51.522;7.020;2022-09-06T14:38:08;9.63;;;1.70;;
31638;SDS011;18248;51.522;7.020;2022-09-06T14:41:08;4.93;;;1.58;;
31638;SDS011;18248;51.522;7.020;2022-09-06T14:44:10;3.15;;;1.25;;
31638;SDS011;18248;51.522;7.020;2022-09-06T14:47:10;5.78;;;1.52;;
31638;SDS011;18248;51.522;7.020;2022-09-06T14:50:09;3.72;;;1.13;;
31638;SDS011;18248;51.522;7.020;2022-09-06T14:53:08;2.88;;;1.40;;
31638;SDS011;18248;51.522;7.020;2022-09-06T14:56:06;6.43;;;1.38;;
31638;SDS011;18248;51.522;7.020;2022-09-06T14:59:06;2.92;;;1.15;;
31638;SDS011;18248;51.522;7.020;2022-09-06T15:02:06;5.50;;;1.27;;
31638;SDS011;18248;51.522;7.020;2022-09-06T15:05:04;7.10;;;1.40;;
31638;SDS011;18248;51.522;7.020;2022-09-06T15:08:03;4.35;;;1.25;;
31638;SDS011;18248;51.522;7.020;2022-09-06T15:11:03;9.05;;;1.55;;
31638;SDS011;18248;51.522;7.020;2022-09-06T15:14:06;3.28;;;1.42;;
31638;SDS011;18248;51.522;7.020;2022-09-06T15:17:09;2.85;;;1.10;;
31638;SDS011;18248;51.522;7.020;2022-09-06T15:20:08;2.50;;;0.93;;
31638;SDS011;18248;51.522;7.020;2022-09-06T15:23:07;29.40;;;10.02;;
31638;SDS011;18248;51.522;7.020;2022-09-06T15:26:06;19.02;;;10.57;;
31638;SDS011;18248;51.522;7.020;2022-09-06T15:29:06;3.70;;;2.28;;
31638;SDS011;18248;51.522;7.020;2022-09-06T15:32:05;7.78;;;3.03;;
31638;SDS011;18248;51.522;7.020;2022-09-06T15:35:04;7.95;;;2.03;;
31638;SDS011;18248;51.522;7.020;2022-09-06T15:38:05;4.35;;;2.03;;
31638;SDS011;18248;51.522;7.020;2022-09-06T15:41:04;5.55;;;2.33;;
31638;SDS011;18248;51.522;7.020;2022-09-06T15:44:08;3.75;;;1.10;;
31638;SDS011;18248;51.522;7.020;2022-09-06T15:47:09;4.53;;;2.15;;
31638;SDS011;18248;51.522;7.020;2022-09-06T15:50:08;6.20;;;1.75;;
31638;SDS011;18248;51.522;7.020;2022-09-06T15:53:08;10.85;;;5.00;;
31638;SDS011;18248;51.522;7.020;2022-09-06T15:56:08;32.88;;;13.45;;
31638;SDS011;18248;51.522;7.020;2022-09-06T16:02:10;54.75;;;24.85;;
31638;SDS011;18248;51.522;7.020;2022-09-06T16:05:09;21.80;;;11.45;;
31638;SDS011;18248;51.522;7.020;2022-09-06T16:08:07;11.75;;;4.85;;
31638;SDS011;18248;51.522;7.020;2022-09-06T16:11:07;17.13;;;8.85;;
31638;SDS011;18248;51.522;7.020;2022-09-06T16:14:09;10.32;;;5.18;;
31638;SDS011;18248;51.522;7.020;2022-09-06T16:17:09;50.45;;;25.48;;
31638;SDS011;18248;51.522;7.020;2022-09-06T16:20:09;17.83;;;9.18;;
31638;SDS011;18248;51.522;7.020;2022-09-06T16:23:07;11.30;;;6.80;;
31638;SDS011;18248;51.522;7.020;2022-09-06T16:26:07;10.20;;;3.85;;
31638;SDS011;18248;51.522;7.020;2022-09-06T16:29:07;6.07;;;3.92;;
31638;SDS011;18248;51.522;7.020;2022-09-06T16:32:08;9.35;;;3.08;;
31638;SDS011;18248;51.522;7.020;2022-09-06T16:35:09;6.15;;;2.40;;
31638;SDS011;18248;51.522;7.020;2022-09-06T16:38:09;2.15;;;1.23;;
31638;SDS011;18248;51.522;7.020;2022-09-06T16:44:08;3.75;;;1.02;;
31638;SDS011;18248;51.522;7.020;2022-09-06T16:47:14;7.32;;;1.20;;
31638;SDS011;18248;51.522;7.020;2022-09-06T16:50:13;6.18;;;1.17;;
31638;SDS011;18248;51.522;7.020;2022-09-06T16:53:12;3.25;;;1.10;;
31638;SDS011;18248;51.522;7.020;2022-09-06T16:56:12;5.63;;;0.90;;
31638;SDS011;18248;51.522;7.020;2022-09-06T16:59:14;4.80;;;0.95;;
31638;SDS011;18248;51.522;7.020;2022-09-06T17:02:16;4.20;;;1.10;;
31638;SDS011;18248;51.522;7.020;2022-09-06T17:05:18;7.28;;;1.13;;
31638;SDS011;18248;51.522;7.020;2022-09-06T17:08:17;4.10;;;1.30;;
31638;SDS011;18248;51.522;7.020;2022-09-06T17:11:18;3.95;;;0.90;;
31638;SDS011;18248;51.522;7.020;2022-09-06T17:14:18;4.82;;;1.08;;
31638;SDS011;18248;51.522;7.020;2022-09-06T17:17:16;2.92;;;1.20;;
31638;SDS011;18248;51.522;7.020;2022-09-06T17:20:16;3.45;;;1.23;;
31638;SDS011;18248;51.522;7.020;2022-09-06T17:23:19;1.25;;;0.90;;
31638;SDS011;18248;51.522;7.020;2022-09-06T17:26:19;8.27;;;1.60;;
31638;SDS011;18248;51.522;7.020;2022-09-06T17:29:18;4.70;;;1.42;;
31638;SDS011;18248;51.522;7.020;2022-09-06T17:32:18;7.00;;;1.73;;
31638;SDS011;18248;51.522;7.020;2022-09-06T17:35:17;11.63;;;2.40;;
31638;SDS011;18248;51.522;7.020;2022-09-06T17:38:17;9.75;;;2.08;;
31638;SDS011;18248;51.522;7.020;2022-09-06T17:41:20;13.82;;;2.53;;
31638;SDS011;18248;51.522;7.020;2022-09-06T17:44:34;12.20;;;2.13;;
31638;SDS011;18248;51.522;7.020;2022-09-06T17:47:33;23.45;;;2.35;;
31638;SDS011;18248;51.522;7.020;2022-09-06T17:50:32;18.30;;;2.38;;
31638;SDS011;18248;51.522;7.020;2022-09-06T17:53:31;17.83;;;2.83;;
31638;SDS011;18248;51.522;7.020;2022-09-06T17:56:31;12.60;;;2.30;;
31638;SDS011;18248;51.522;7.020;2022-09-06T17:59:31;27.08;;;3.17;;
31638;SDS011;18248;51.522;7.020;2022-09-06T18:02:30;22.58;;;3.00;;
31638;SDS011;18248;51.522;7.020;2022-09-06T18:05:29;18.83;;;2.17;;
31638;SDS011;18248;51.522;7.020;2022-09-06T18:08:36;23.42;;;2.75;;
31638;SDS011;18248;51.522;7.020;2022-09-06T18:11:36;11.55;;;2.33;;
31638;SDS011;18248;51.522;7.020;2022-09-06T18:14:36;10.18;;;2.58;;
31638;SDS011;18248;51.522;7.020;2022-09-06T18:17:35;12.32;;;2.13;;
31638;SDS011;18248;51.522;7.020;2022-09-06T18:20:33;11.35;;;2.13;;
31638;SDS011;18248;51.522;7.020;2022-09-06T18:23:32;15.35;;;2.85;;
31638;SDS011;18248;51.522;7.020;2022-09-06T18:26:31;13.88;;;2.50;;
31638;SDS011;18248;51.522;7.020;2022-09-06T18:29:30;12.52;;;2.70;;
31638;SDS011;18248;51.522;7.020;2022-09-06T18:32:29;11.02;;;2.25;;
31638;SDS011;18248;51.522;7.020;2022-09-06T18:35:28;19.33;;;2.40;;
31638;SDS011;18248;51.522;7.020;2022-09-06T18:38:27;15.43;;;2.60;;
31638;SDS011;18248;51.522;7.020;2022-09-06T18:41:26;29.83;;;3.65;;
31638;SDS011;18248;51.522;7.020;2022-09-06T18:44:43;15.18;;;3.15;;
31638;SDS011;18248;51.522;7.020;2022-09-06T18:47:45;17.83;;;2.63;;
31638;SDS011;18248;51.522;7.020;2022-09-06T18:50:45;19.65;;;2.45;;
31638;SDS011;18248;51.522;7.020;2022-09-06T18:53:45;11.20;;;2.30;;
31638;SDS011;18248;51.522;7.020;2022-09-06T18:56:45;19.58;;;2.20;;
31638;SDS011;18248;51.522;7.020;2022-09-06T18:59:46;14.57;;;2.17;;
31638;SDS011;18248;51.522;7.020;2022-09-06T19:02:45;25.15;;;2.80;;
31638;SDS011;18248;51.522;7.020;2022-09-06T19:05:43;10.20;;;1.77;;
31638;SDS011;18248;51.522;7.020;2022-09-06T19:08:42;10.98;;;1.80;;
31638;SDS011;18248;51.522;7.020;2022-09-06T19:11:41;18.25;;;2.20;;
31638;SDS011;18248;51.522;7.020;2022-09-06T19:14:42;22.17;;;4.43;;
31638;SDS011;18248;51.522;7.020;2022-09-06T19:17:40;9.93;;;2.58;;
31638;SDS011;18248;51.522;7.020;2022-09-06T19:20:39;12.80;;;2.30;;
31638;SDS011;18248;51.522;7.020;2022-09-06T19:23:39;9.38;;;1.92;;
31638;SDS011;18248;51.522;7.020;2022-09-06T19:26:39;10.18;;;1.92;;
31638;SDS011;18248;51.522;7.020;2022-09-06T19:29:39;14.75;;;1.98;;
31638;SDS011;18248;51.522;7.020;2022-09-06T19:32:38;7.18;;;1.65;;
31638;SDS011;18248;51.522;7.020;2022-09-06T19:35:37;9.45;;;1.88;;
31638;SDS011;18248;51.522;7.020;2022-09-06T19:38:37;7.78;;;1.70;;
31638;SDS011;18248;51.522;7.020;2022-09-06T19:41:37;7.88;;;1.80;;
31638;SDS011;18248;51.522;7.020;2022-09-06T19:44:36;16.02;;;2.58;;
31638;SDS011;18248;51.522;7.020;2022-09-06T19:47:35;8.00;;;1.77;;
31638;SDS011;18248;51.522;7.020;2022-09-06T19:50:34;10.40;;;2.40;;
31638;SDS011;18248;51.522;7.020;2022-09-06T19:53:35;13.65;;;2.47;;
31638;SDS011;18248;51.522;7.020;2022-09-06T19:56:35;8.82;;;1.65;;
31638;SDS011;18248;51.522;7.020;2022-09-06T19:59:33;7.07;;;1.70;;
31638;SDS011;18248;51.522;7.020;2022-09-06T20:02:33;9.95;;;2.17;;